Time;durP1;ratioP1;P1;durP2;ratioP2;P2;SDS_P1;SDS_P2;PMS_P1;PMS_P2;Temp;Humidity;BMP_temperature;BMP_pressure;BME280_temperature;BME280_humidity;BME280_pressure;Samples;Min_cycle;Max_cycle;Signal;HPM_P1;HPM_P2
2021/12/31 00:00:43;;;;;;;1.00;0.70;;;;;19.50;100725.00;;;;2083331;28;20718;-54
2021/12/31 00:01:43;;;;;;;1.93;1.00;;;;;19.40;100726.00;;;;2085452;28;20211;-54
2021/12/31 00:02:43;;;;;;;1.20;0.70;;;;;19.50;100724.00;;;;2088657;28;20501;-54
2021/12/31 00:03:44;;;;;;;1.00;0.73;;;;;19.50;100726.00;;;;2089061;28;20270;-54
2021/12/31 00:04:44;;;;;;;0.93;0.73;;;;;19.40;100720.00;;;;2088922;28;20239;-54
2021/12/31 00:05:45;;;;;;;1.17;0.87;;;;;19.40;100723.00;;;;2088802;28;20212;-55
2021/12/31 00:06:45;;;;;;;1.30;0.80;;;;;19.50;100714.00;;;;2089279;28;20205;-54
2021/12/31 00:07:45;;;;;;;0.80;0.60;;;;;19.50;100728.00;;;;2089462;28;20243;-54
2021/12/31 00:08:46;;;;;;;1.23;0.73;;;;;19.50;100728.00;;;;2089358;28;20209;-54
2021/12/31 00:09:47;;;;;;;1.00;0.60;;;;;19.50;100729.00;;;;2089458;28;20224;-54
2021/12/31 00:10:47;;;;;;;0.90;0.70;;;;;19.50;100729.00;;;;2089047;28;20212;-54
2021/12/31 00:11:47;;;;;;;0.77;0.60;;;;;19.50;100727.00;;;;2081168;28;20259;-54
2021/12/31 00:12:48;;;;;;;0.90;0.70;;;;;19.50;100727.00;;;;2088805;28;20259;-54
2021/12/31 00:13:48;;;;;;;1.20;0.93;;;;;19.50;100722.00;;;;2089284;28;20220;-54
2021/12/31 00:14:48;;;;;;;1.07;0.80;;;;;19.50;100728.00;;;;2089315;28;20219;-54
2021/12/31 00:15:49;;;;;;;0.80;0.70;;;;;19.50;100720.00;;;;2089280;28;20270;-54
2021/12/31 00:16:49;;;;;;;0.90;0.60;;;;;19.50;100729.00;;;;2089341;28;20225;-54
2021/12/31 00:17:49;;;;;;;2.00;0.70;;;;;19.50;100722.00;;;;2089257;28;20228;-54
2021/12/31 00:18:50;;;;;;;0.87;0.70;;;;;19.50;100721.00;;;;2089338;28;20695;-54
2021/12/31 00:19:59;;;;;;;1.20;0.80;;;;;19.50;100720.00;;;;2089199;28;20224;-54
2021/12/31 00:21:00;;;;;;;1.10;0.70;;;;;19.50;100720.00;;;;2079448;28;20213;-54
2021/12/31 00:22:13;;;;;;;0.90;0.77;;;;;19.50;100722.00;;;;2091754;28;20707;-54
2021/12/31 00:23:16;;;;;;;0.88;0.80;;;;;19.40;100720.00;;;;2088856;28;20267;-54
2021/12/31 00:24:16;;;;;;;0.88;0.60;;;;;19.40;100721.00;;;;2088451;28;20216;-54
2021/12/31 00:25:18;;;;;;;1.30;0.60;;;;;19.50;100714.00;;;;2088825;28;20305;-54
2021/12/31 00:26:18;;;;;;;1.02;0.57;;;;;19.50;100711.00;;;;2088760;28;20221;-54
2021/12/31 00:27:19;;;;;;;0.70;0.60;;;;;19.50;100713.00;;;;2088848;28;20636;-54
2021/12/31 00:28:19;;;;;;;1.30;0.77;;;;;19.50;100721.00;;;;2088887;28;20212;-54
2021/12/31 00:29:19;;;;;;;1.00;0.70;;;;;19.50;100720.00;;;;2088792;28;20274;-54
2021/12/31 00:30:20;;;;;;;0.80;0.60;;;;;19.50;100719.00;;;;2088600;28;20235;-54
2021/12/31 00:31:21;;;;;;;1.00;0.80;;;;;19.50;100715.00;;;;2088438;28;20220;-54
2021/12/31 00:32:21;;;;;;;0.90;0.60;;;;;19.50;100712.00;;;;2088757;28;20475;-54
2021/12/31 00:33:22;;;;;;;1.37;0.67;;;;;19.40;100713.00;;;;2088762;28;20209;-54
2021/12/31 00:34:22;;;;;;;1.63;0.97;;;;;19.40;100703.00;;;;2088895;28;20224;-54
2021/12/31 00:35:22;;;;;;;0.90;0.70;;;;;19.50;100708.00;;;;2088065;28;20221;-54
2021/12/31 00:36:40;;;;;;;0.97;0.70;;;;;19.50;100709.00;;;;2088503;28;20298;-54
2021/12/31 00:37:40;;;;;;;1.23;0.80;;;;;19.50;100714.00;;;;2087911;28;20687;-54
2021/12/31 00:38:41;;;;;;;0.90;0.60;;;;;19.40;100701.00;;;;2087983;28;20209;-54
2021/12/31 00:39:41;;;;;;;0.80;0.60;;;;;19.40;100703.00;;;;2088574;28;20255;-54
2021/12/31 00:40:42;;;;;;;1.20;0.77;;;;;19.50;100712.00;;;;2086668;28;20624;-54
2021/12/31 00:41:42;;;;;;;1.20;0.70;;;;;19.50;100712.00;;;;2084357;28;20224;-54
2021/12/31 00:42:43;;;;;;;1.00;0.60;;;;;19.40;100712.00;;;;2096216;28;20216;-54
2021/12/31 00:43:43;;;;;;;0.90;0.70;;;;;19.40;100713.00;;;;2090484;28;20564;-54
2021/12/31 00:44:44;;;;;;;0.83;0.60;;;;;19.40;100703.00;;;;2089164;28;20244;-54
2021/12/31 00:45:44;;;;;;;1.10;0.70;;;;;19.50;100707.00;;;;2089102;28;20213;-54
2021/12/31 00:46:44;;;;;;;0.80;0.67;;;;;19.40;100703.00;;;;2088886;28;20229;-53
2021/12/31 00:47:45;;;;;;;1.00;0.70;;;;;19.50;100708.00;;;;2086509;28;20213;-54
2021/12/31 00:48:45;;;;;;;1.20;0.77;;;;;19.50;100710.00;;;;2088388;28;20291;-54
2021/12/31 00:49:46;;;;;;;1.00;0.70;;;;;19.50;100710.00;;;;2089129;28;20221;-54
2021/12/31 00:50:46;;;;;;;0.70;0.55;;;;;19.50;100702.00;;;;2088735;28;20216;-54
2021/12/31 00:51:47;;;;;;;1.10;0.90;;;;;19.50;100707.00;;;;2088933;28;20700;-54
2021/12/31 00:52:47;;;;;;;1.67;0.77;;;;;19.50;100705.00;;;;2088907;28;20708;-54
2021/12/31 00:53:48;;;;;;;0.80;0.70;;;;;19.50;100716.00;;;;2089076;28;20205;-54
2021/12/31 00:54:48;;;;;;;0.70;0.60;;;;;19.50;100719.00;;;;2089009;28;20212;-54
2021/12/31 00:55:48;;;;;;;0.80;0.70;;;;;19.50;100716.00;;;;2088621;28;20217;-54
2021/12/31 00:56:49;;;;;;;0.97;0.80;;;;;19.50;100708.00;;;;2088189;28;20223;-54
2021/12/31 00:57:49;;;;;;;1.03;0.80;;;;;19.50;100721.00;;;;2088078;28;20213;-54
2021/12/31 00:58:49;;;;;;;0.93;0.63;;;;;19.50;100712.00;;;;2088647;28;21269;-54
2021/12/31 00:59:50;;;;;;;1.00;0.70;;;;;19.40;100713.00;;;;2088746;28;20677;-54
2021/12/31 01:00:50;;;;;;;1.53;0.90;;;;;19.50;100726.00;;;;2088479;28;20219;-54
2021/12/31 01:01:51;;;;;;;0.70;0.60;;;;;19.40;100708.00;;;;2088339;28;21081;-53
2021/12/31 01:02:51;;;;;;;1.20;0.80;;;;;19.30;100720.00;;;;2088404;28;20780;-54
2021/12/31 01:03:52;;;;;;;0.93;0.63;;;;;19.50;100725.00;;;;2088369;28;20696;-54
2021/12/31 01:04:52;;;;;;;0.70;0.60;;;;;19.50;100720.00;;;;2088279;28;20233;-54
2021/12/31 01:05:52;;;;;;;0.83;0.50;;;;;19.50;100717.00;;;;2088563;28;20209;-54
2021/12/31 01:06:54;;;;;;;1.27;0.93;;;;;19.50;100714.00;;;;2088555;28;20623;-54
2021/12/31 01:07:54;;;;;;;1.02;0.70;;;;;19.50;100720.00;;;;2088419;28;20220;-54
2021/12/31 01:08:55;;;;;;;1.10;0.60;;;;;19.40;100720.00;;;;2088594;28;20209;-54
2021/12/31 01:09:56;;;;;;;1.10;0.70;;;;;19.40;100712.00;;;;2087201;28;20216;-54
2021/12/31 01:10:56;;;;;;;1.00;0.70;;;;;19.40;100720.00;;;;2088075;28;20552;-54
2021/12/31 01:11:57;;;;;;;1.70;0.73;;;;;19.40;100721.00;;;;2087870;28;20463;-54
2021/12/31 01:12:58;;;;;;;1.20;0.70;;;;;19.40;100713.00;;;;2088775;28;20233;-54
2021/12/31 01:14:03;;;;;;;1.10;0.70;;;;;19.40;100716.00;;;;2088313;28;20494;-54
2021/12/31 01:15:08;;;;;;;1.25;0.70;;;;;19.40;100718.00;;;;2079436;28;20216;-55
2021/12/31 01:16:08;;;;;;;1.05;0.60;;;;;19.50;100722.00;;;;2088206;28;20247;-54
2021/12/31 01:17:12;;;;;;;1.00;0.70;;;;;19.50;100714.00;;;;2088313;28;20213;-54
2021/12/31 01:20:14;;;;;;;0.90;0.87;;;;;19.50;100725.00;;;;2088340;28;20217;-54
2021/12/31 01:21:15;;;;;;;1.45;0.60;;;;;19.40;100721.00;;;;2088278;28;20217;-54
2021/12/31 01:22:23;;;;;;;1.07;0.60;;;;;19.40;100722.00;;;;2088393;28;20204;-54
2021/12/31 01:23:23;;;;;;;1.00;0.80;;;;;19.40;100705.00;;;;2087922;28;20454;-54
2021/12/31 01:24:25;;;;;;;0.87;0.80;;;;;19.40;100712.00;;;;2088381;28;20208;-54
2021/12/31 01:25:26;;;;;;;0.70;0.50;;;;;19.40;100714.00;;;;2088151;28;20220;-54
2021/12/31 01:26:26;;;;;;;1.00;0.70;;;;;19.40;100709.00;;;;2088775;28;20679;-54
2021/12/31 01:27:26;;;;;;;0.60;0.50;;;;;19.40;100715.00;;;;2088752;28;20212;-53
2021/12/31 01:28:27;;;;;;;1.10;0.70;;;;;19.40;100713.00;;;;2088795;28;20710;-54
2021/12/31 01:29:27;;;;;;;0.90;0.80;;;;;19.50;100711.00;;;;2088651;28;20688;-54
2021/12/31 01:30:27;;;;;;;1.33;0.70;;;;;19.50;100714.00;;;;2085690;28;20672;-54
2021/12/31 01:31:28;;;;;;;0.90;0.60;;;;;19.40;100716.00;;;;2081270;28;20220;-54
2021/12/31 01:32:30;;;;;;;1.00;0.63;;;;;19.40;100706.00;;;;2094464;28;20224;-54
2021/12/31 01:33:30;;;;;;;1.17;0.80;;;;;19.40;100715.00;;;;2089204;28;20684;-54
2021/12/31 01:34:31;;;;;;;0.70;0.60;;;;;19.50;100719.00;;;;2088267;28;20212;-53
2021/12/31 01:35:31;;;;;;;1.17;0.67;;;;;19.50;100715.00;;;;2088023;28;20216;-53
2021/12/31 01:36:31;;;;;;;0.87;0.73;;;;;19.50;100706.00;;;;2087465;28;20217;-54
2021/12/31 01:37:32;;;;;;;2.43;0.80;;;;;19.50;100715.00;;;;2088155;28;20232;-54
2021/12/31 01:38:34;;;;;;;1.13;0.80;;;;;19.40;100717.00;;;;2088233;28;20209;-54
2021/12/31 01:39:35;;;;;;;1.20;0.65;;;;;19.40;100706.00;;;;2082275;28;20294;-54
2021/12/31 01:40:35;;;;;;;0.90;0.73;;;;;19.40;100711.00;;;;2082231;28;20643;-54
2021/12/31 01:41:35;;;;;;;0.80;0.70;;;;;19.40;100707.00;;;;2088196;28;20784;-54
2021/12/31 01:42:37;;;;;;;1.20;0.70;;;;;19.40;100707.00;;;;2088176;28;20217;-54
2021/12/31 01:43:38;;;;;;;0.90;0.73;;;;;19.40;100706.00;;;;2088055;28;20277;-55
2021/12/31 01:44:43;;;;;;;0.93;0.73;;;;;19.40;100713.00;;;;2079725;28;20227;-54
2021/12/31 01:45:47;;;;;;;0.80;0.70;;;;;19.40;100714.00;;;;2087200;28;20213;-54
2021/12/31 01:46:55;;;;;;;0.90;0.60;;;;;19.40;100717.00;;;;2087526;28;20220;-54
2021/12/31 01:50:01;;;;;;;0.90;0.70;;;;;19.50;100718.00;;;;2088200;28;20209;-54
2021/12/31 01:51:02;;;;;;;0.98;0.60;;;;;19.50;100716.00;;;;2087961;28;20221;-54
2021/12/31 01:52:03;;;;;;;0.77;0.60;;;;;19.50;100716.00;;;;2087735;28;20215;-54
2021/12/31 01:53:05;;;;;;;0.90;0.52;;;;;19.40;100714.00;;;;2088186;28;20757;-56
2021/12/31 01:54:05;;;;;;;1.00;0.60;;;;;19.40;100720.00;;;;2088104;28;20212;-53
2021/12/31 01:55:06;;;;;;;1.03;0.60;;;;;19.40;100698.00;;;;2087940;28;20221;-54
2021/12/31 01:56:06;;;;;;;1.02;0.75;;;;;19.40;100721.00;;;;2078936;28;20217;-54
2021/12/31 01:57:09;;;;;;;1.10;0.60;;;;;19.40;100721.00;;;;2079042;28;20225;-54
2021/12/31 01:58:09;;;;;;;0.90;0.60;;;;;19.50;100717.00;;;;2087933;28;20576;-54
2021/12/31 01:59:09;;;;;;;0.77;0.60;;;;;19.50;100728.00;;;;2078643;28;20216;-55
2021/12/31 02:00:10;;;;;;;0.60;0.60;;;;;19.50;100722.00;;;;2066688;28;20237;-56
2021/12/31 02:01:11;;;;;;;0.70;0.60;;;;;19.50;100721.00;;;;2066440;28;20236;-54
2021/12/31 02:02:11;;;;;;;1.30;0.90;;;;;19.30;100727.00;;;;2095140;28;20216;-54
2021/12/31 02:03:11;;;;;;;1.33;0.57;;;;;19.40;100703.00;;;;2091651;28;20216;-55
2021/12/31 02:04:12;;;;;;;1.07;0.60;;;;;19.40;100726.00;;;;2087149;28;20219;-54
2021/12/31 02:05:12;;;;;;;1.20;0.80;;;;;19.40;100709.00;;;;2085240;28;20225;-53
2021/12/31 02:06:13;;;;;;;0.87;0.60;;;;;19.40;100727.00;;;;2088285;28;20213;-54
2021/12/31 02:07:13;;;;;;;0.90;0.70;;;;;19.50;100721.00;;;;2088455;28;20240;-54
2021/12/31 02:08:14;;;;;;;1.27;0.67;;;;;19.50;100719.00;;;;2088517;28;20266;-54
2021/12/31 02:09:14;;;;;;;0.60;0.40;;;;;19.50;100721.00;;;;2088487;28;20687;-55
2021/12/31 02:10:14;;;;;;;0.93;0.63;;;;;19.50;100724.00;;;;2085935;28;20216;-54
2021/12/31 02:11:17;;;;;;;1.00;0.63;;;;;19.50;100717.00;;;;2088291;28;20741;-54
2021/12/31 02:12:18;;;;;;;0.80;0.80;;;;;19.40;100714.00;;;;2087963;28;20234;-55
2021/12/31 02:13:19;;;;;;;1.10;0.80;;;;;19.40;100707.00;;;;2087570;28;20204;-54
2021/12/31 02:14:20;;;;;;;0.90;0.70;;;;;19.40;100721.00;;;;2088137;28;20209;-55
2021/12/31 02:15:20;;;;;;;0.73;0.57;;;;;19.50;100727.00;;;;2087356;28;20818;-54
2021/12/31 02:16:20;;;;;;;1.43;0.80;;;;;19.40;100721.00;;;;2087377;28;20252;-54
2021/12/31 02:17:21;;;;;;;1.37;0.83;;;;;19.50;100720.00;;;;2073783;28;20221;-54
2021/12/31 02:18:21;;;;;;;1.53;0.70;;;;;19.50;100721.00;;;;2091750;28;20221;-54
2021/12/31 02:19:28;;;;;;;1.77;0.83;;;;;19.40;100722.00;;;;2086960;28;20216;-54
2021/12/31 02:20:45;;;;;;;1.08;0.60;;;;;19.50;100722.00;;;;2084133;28;20220;-54
2021/12/31 02:21:45;;;;;;;0.80;0.60;;;;;19.40;100725.00;;;;2087308;28;20642;-55
2021/12/31 02:23:05;;;;;;;1.30;0.70;;;;;19.50;100726.00;;;;2088077;28;20219;-55
2021/12/31 02:24:07;;;;;;;0.60;0.40;;;;;19.40;100726.00;;;;2084504;28;20220;-54
2021/12/31 02:25:07;;;;;;;0.95;0.77;;;;;19.40;100723.00;;;;2088039;28;20220;-54
2021/12/31 02:26:08;;;;;;;1.50;0.60;;;;;19.40;100716.00;;;;2088389;28;20304;-54
2021/12/31 02:27:08;;;;;;;1.23;1.13;;;;;19.40;100721.00;;;;2088272;28;20688;-54
2021/12/31 02:28:09;;;;;;;1.00;0.90;;;;;19.40;100712.00;;;;2088356;28;20444;-54
2021/12/31 02:29:09;;;;;;;1.00;0.67;;;;;19.40;100728.00;;;;2088324;28;20353;-54
2021/12/31 02:30:10;;;;;;;1.00;0.77;;;;;19.40;100721.00;;;;2085475;28;20220;-54
2021/12/31 02:31:10;;;;;;;0.90;0.70;;;;;19.40;100722.00;;;;2087158;28;20244;-54
2021/12/31 02:32:10;;;;;;;1.00;0.90;;;;;19.40;100721.00;;;;2087548;28;20212;-54
2021/12/31 02:33:11;;;;;;;0.80;0.60;;;;;19.50;100730.00;;;;2088249;28;20216;-53
2021/12/31 02:34:11;;;;;;;1.10;0.70;;;;;19.40;100725.00;;;;2087636;28;20561;-54
2021/12/31 02:35:12;;;;;;;0.80;0.70;;;;;19.40;100724.00;;;;2087075;28;20215;-53
2021/12/31 02:36:12;;;;;;;1.10;0.70;;;;;19.40;100727.00;;;;2087823;28;20212;-54
2021/12/31 02:37:12;;;;;;;1.00;0.70;;;;;19.40;100729.00;;;;2088049;28;20208;-53
2021/12/31 02:38:13;;;;;;;0.83;0.70;;;;;19.40;100727.00;;;;2087820;28;20219;-54
2021/12/31 02:39:13;;;;;;;1.33;0.63;;;;;19.40;100727.00;;;;2079372;28;20243;-54
2021/12/31 02:40:15;;;;;;;0.67;0.50;;;;;19.40;100729.00;;;;2087847;28;20208;-54
2021/12/31 02:41:15;;;;;;;0.90;0.60;;;;;19.40;100718.00;;;;2088153;28;20215;-54
2021/12/31 02:42:16;;;;;;;0.80;0.63;;;;;19.40;100717.00;;;;2088229;28;20208;-54
2021/12/31 02:43:16;;;;;;;1.27;0.57;;;;;19.40;100723.00;;;;2087557;28;20213;-54
2021/12/31 02:44:16;;;;;;;1.07;0.73;;;;;19.40;100718.00;;;;2087366;28;20204;-54
2021/12/31 02:45:17;;;;;;;0.80;0.70;;;;;19.40;100718.00;;;;2085917;28;20255;-54
2021/12/31 02:46:17;;;;;;;1.17;0.80;;;;;19.40;100714.00;;;;2088047;28;20305;-54
2021/12/31 02:47:18;;;;;;;0.60;0.60;;;;;19.40;100718.00;;;;2088190;28;20267;-53
2021/12/31 02:48:24;;;;;;;0.73;0.60;;;;;19.40;100725.00;;;;2087672;28;20634;-54
2021/12/31 02:49:29;;;;;;;0.77;0.60;;;;;19.40;100726.00;;;;2085015;28;20208;-54
2021/12/31 02:50:38;;;;;;;1.00;0.80;;;;;19.40;100716.00;;;;2085503;28;20270;-54
2021/12/31 02:51:38;;;;;;;1.00;0.73;;;;;19.40;100719.00;;;;2082015;28;20281;-54
2021/12/31 02:52:39;;;;;;;1.23;0.77;;;;;19.40;100716.00;;;;2088156;28;20223;-54
2021/12/31 02:53:40;;;;;;;0.70;0.60;;;;;19.50;100717.00;;;;2088290;28;20227;-54
2021/12/31 02:54:43;;;;;;;0.80;0.50;;;;;19.40;100716.00;;;;2087536;28;20220;-54
2021/12/31 02:55:44;;;;;;;0.80;0.65;;;;;19.40;100720.00;;;;2086866;28;20315;-54
2021/12/31 02:56:44;;;;;;;0.90;0.60;;;;;19.50;100714.00;;;;2087048;28;20689;-54
2021/12/31 02:57:44;;;;;;;1.17;0.63;;;;;19.40;100713.00;;;;2087820;28;20212;-54
2021/12/31 02:58:45;;;;;;;1.17;0.83;;;;;19.40;100720.00;;;;2087545;28;20224;-54
2021/12/31 02:59:45;;;;;;;0.80;0.60;;;;;19.40;100723.00;;;;2086825;28;20213;-54
2021/12/31 03:00:46;;;;;;;0.70;0.60;;;;;19.50;100719.00;;;;2086573;28;20220;-54
2021/12/31 03:01:46;;;;;;;1.17;1.00;;;;;19.40;100705.00;;;;2086872;28;20217;-54
2021/12/31 03:02:46;;;;;;;1.20;0.60;;;;;19.40;100721.00;;;;2078543;28;20767;-54
2021/12/31 03:03:47;;;;;;;1.00;0.77;;;;;19.40;100718.00;;;;2070552;28;20589;-54
2021/12/31 03:04:48;;;;;;;0.87;0.60;;;;;19.40;100714.00;;;;2087075;28;20608;-54
2021/12/31 03:05:48;;;;;;;0.80;0.80;;;;;19.40;100708.00;;;;2078253;28;20835;-54
2021/12/31 03:06:49;;;;;;;1.00;0.77;;;;;19.40;100701.00;;;;2078803;28;20660;-54
2021/12/31 03:07:49;;;;;;;1.10;0.70;;;;;19.40;100713.00;;;;2086868;28;20219;-53
2021/12/31 03:08:50;;;;;;;0.90;0.53;;;;;19.40;100711.00;;;;2079081;28;20482;-54
2021/12/31 03:09:50;;;;;;;1.17;0.90;;;;;19.40;100703.00;;;;2071056;28;20221;-54
2021/12/31 03:10:50;;;;;;;0.80;0.70;;;;;19.40;100707.00;;;;2070103;28;20720;-54
2021/12/31 03:11:52;;;;;;;0.70;0.60;;;;;19.40;100727.00;;;;2078642;28;20225;-54
2021/12/31 03:12:52;;;;;;;1.80;0.90;;;;;19.40;100715.00;;;;2084977;28;20254;-54
2021/12/31 03:13:52;;;;;;;1.10;0.67;;;;;19.40;100722.00;;;;2078612;28;20229;-54
2021/12/31 03:14:54;;;;;;;1.63;0.60;;;;;19.40;100708.00;;;;2078458;28;20221;-54
2021/12/31 03:15:54;;;;;;;0.80;0.70;;;;;19.40;100714.00;;;;2076590;28;20217;-55
2021/12/31 03:16:55;;;;;;;0.90;0.70;;;;;19.40;100714.00;;;;2085379;28;20278;-55
2021/12/31 03:17:59;;;;;;;0.90;0.60;;;;;19.40;100690.00;;;;2087472;28;20209;-55
2021/12/31 03:19:00;;;;;;;0.68;0.50;;;;;19.40;100708.00;;;;2086617;28;20688;-54
2021/12/31 03:20:10;;;;;;;0.80;0.67;;;;;19.40;100714.00;;;;2086772;28;20258;-54
2021/12/31 03:21:20;;;;;;;0.80;0.60;;;;;19.40;100715.00;;;;2087481;28;20342;-54
2021/12/31 03:22:24;;;;;;;0.80;0.65;;;;;19.40;100714.00;;;;2087622;28;20233;-54
2021/12/31 03:23:24;;;;;;;1.33;0.70;;;;;19.40;100711.00;;;;2086434;28;20220;-54
2021/12/31 03:24:25;;;;;;;1.50;0.57;;;;;19.40;100713.00;;;;2086576;28;20209;-54
2021/12/31 03:25:25;;;;;;;1.03;0.60;;;;;19.40;100716.00;;;;2084973;28;20271;-54
2021/12/31 03:26:25;;;;;;;0.80;0.50;;;;;19.40;100707.00;;;;2087632;28;20205;-53
2021/12/31 03:27:26;;;;;;;0.80;0.60;;;;;19.40;100705.00;;;;2087429;28;20220;-54
2021/12/31 03:28:26;;;;;;;0.80;0.63;;;;;19.40;100707.00;;;;2087572;28;20235;-54
2021/12/31 03:29:26;;;;;;;0.70;0.60;;;;;19.40;100712.00;;;;2087246;28;20205;-57
2021/12/31 03:30:27;;;;;;;1.00;0.50;;;;;19.40;100707.00;;;;2087675;28;20205;-56
2021/12/31 03:31:27;;;;;;;0.80;0.70;;;;;19.40;100708.00;;;;2087732;28;20256;-55
2021/12/31 03:32:28;;;;;;;1.00;0.70;;;;;19.40;100703.00;;;;2087796;28;20209;-55
2021/12/31 03:33:28;;;;;;;0.70;0.50;;;;;19.40;100714.00;;;;2087900;28;20208;-55
2021/12/31 03:34:28;;;;;;;1.03;0.73;;;;;19.40;100715.00;;;;2087884;28;20221;-54
2021/12/31 03:35:29;;;;;;;0.70;0.60;;;;;19.40;100709.00;;;;2087346;28;20225;-55
2021/12/31 03:36:29;;;;;;;0.70;0.50;;;;;19.40;100706.00;;;;2087841;28;20272;-54
2021/12/31 03:37:29;;;;;;;1.23;0.70;;;;;19.50;100714.00;;;;2087821;28;20243;-54
2021/12/31 03:38:30;;;;;;;1.37;0.80;;;;;19.40;100700.00;;;;2087991;28;20213;-54
2021/12/31 03:39:30;;;;;;;1.20;0.70;;;;;19.40;100714.00;;;;2087887;28;20251;-54
2021/12/31 03:40:30;;;;;;;1.57;0.60;;;;;19.40;100717.00;;;;2084196;28;20216;-54
2021/12/31 03:41:31;;;;;;;0.80;0.67;;;;;19.50;100704.00;;;;2088009;28;20212;-54
2021/12/31 03:42:32;;;;;;;0.70;0.60;;;;;19.40;100709.00;;;;2087899;28;20232;-54
2021/12/31 03:43:32;;;;;;;2.10;0.60;;;;;19.40;100708.00;;;;2087342;28;20212;-54
2021/12/31 03:44:32;;;;;;;1.00;0.67;;;;;19.40;100715.00;;;;2087877;28;20221;-54
2021/12/31 03:45:33;;;;;;;0.90;0.60;;;;;19.40;100717.00;;;;2086860;28;20220;-54
2021/12/31 03:46:33;;;;;;;1.37;0.60;;;;;19.40;100710.00;;;;2087782;28;20286;-54
2021/12/31 03:47:33;;;;;;;1.10;0.70;;;;;19.40;100710.00;;;;2087783;28;20245;-54
2021/12/31 03:48:34;;;;;;;0.90;0.80;;;;;19.40;100695.00;;;;2087895;28;20217;-54
2021/12/31 03:49:34;;;;;;;1.17;0.80;;;;;19.40;100707.00;;;;2087908;28;20227;-54
2021/12/31 03:50:34;;;;;;;0.80;0.60;;;;;19.40;100704.00;;;;2087473;28;20240;-54
2021/12/31 03:51:34;;;;;;;1.00;0.77;;;;;19.40;100703.00;;;;2087330;28;20224;-54
2021/12/31 03:52:38;;;;;;;1.63;0.60;;;;;19.40;100711.00;;;;2087354;28;20237;-54
2021/12/31 03:53:39;;;;;;;0.90;0.80;;;;;19.40;100712.00;;;;2087364;28;20964;-53
2021/12/31 03:54:39;;;;;;;1.03;0.70;;;;;19.40;100711.00;;;;2087548;28;20252;-54
2021/12/31 03:55:39;;;;;;;1.00;0.50;;;;;19.40;100708.00;;;;2088073;28;20336;-54
2021/12/31 03:56:39;;;;;;;1.60;0.83;;;;;19.40;100703.00;;;;2087412;28;20224;-54
2021/12/31 03:57:40;;;;;;;1.20;0.70;;;;;19.40;100700.00;;;;2085044;28;20221;-54
2021/12/31 03:58:40;;;;;;;1.00;0.60;;;;;19.40;100708.00;;;;2085716;28;20221;-54
2021/12/31 03:59:41;;;;;;;0.90;0.70;;;;;19.40;100702.00;;;;2084925;28;20262;-54
2021/12/31 04:00:41;;;;;;;1.10;0.70;;;;;19.40;100702.00;;;;2087560;28;20221;-54
2021/12/31 04:01:41;;;;;;;0.77;0.60;;;;;19.40;100695.00;;;;2087814;28;20240;-54
2021/12/31 04:02:42;;;;;;;0.93;0.67;;;;;19.40;100692.00;;;;2086318;28;20595;-54
2021/12/31 04:03:42;;;;;;;0.77;0.60;;;;;19.40;100700.00;;;;2087673;28;20577;-54
2021/12/31 04:04:42;;;;;;;0.87;0.50;;;;;19.40;100698.00;;;;2087525;28;20209;-54
2021/12/31 04:05:43;;;;;;;0.80;0.67;;;;;19.40;100701.00;;;;2087212;28;20219;-54
2021/12/31 04:06:43;;;;;;;0.80;0.70;;;;;19.40;100690.00;;;;2087298;28;20216;-54
2021/12/31 04:07:43;;;;;;;1.30;0.70;;;;;19.40;100699.00;;;;2087332;28;20240;-54
2021/12/31 04:08:44;;;;;;;0.70;0.50;;;;;19.40;100684.00;;;;2087511;28;20274;-54
2021/12/31 04:09:44;;;;;;;0.80;0.63;;;;;19.40;100691.00;;;;2087381;28;20231;-54
2021/12/31 04:10:45;;;;;;;1.33;0.90;;;;;19.40;100685.00;;;;2087536;28;20587;-54
2021/12/31 04:11:45;;;;;;;1.03;0.70;;;;;19.40;100687.00;;;;2087806;28;20650;-54
2021/12/31 04:12:45;;;;;;;0.93;0.77;;;;;19.40;100676.00;;;;2087664;28;20244;-54
2021/12/31 04:13:46;;;;;;;1.23;0.63;;;;;19.40;100692.00;;;;2087752;28;20220;-54
2021/12/31 04:14:46;;;;;;;1.10;0.60;;;;;19.40;100697.00;;;;2087668;28;20209;-54
2021/12/31 04:15:46;;;;;;;0.80;0.77;;;;;19.40;100691.00;;;;2087674;28;20205;-55
2021/12/31 04:16:47;;;;;;;0.80;0.60;;;;;19.40;100693.00;;;;2087951;28;20278;-54
2021/12/31 04:17:47;;;;;;;1.27;0.70;;;;;19.40;100692.00;;;;2087963;28;20204;-54
2021/12/31 04:18:47;;;;;;;1.50;0.70;;;;;19.40;100696.00;;;;2087968;28;20247;-55
2021/12/31 04:19:52;;;;;;;1.10;0.60;;;;;19.40;100689.00;;;;2088045;28;20213;-54
2021/12/31 04:20:55;;;;;;;0.70;0.60;;;;;19.40;100687.00;;;;2087797;28;20205;-54
2021/12/31 04:21:56;;;;;;;0.82;0.70;;;;;19.40;100692.00;;;;2087840;28;20294;-54
2021/12/31 04:22:58;;;;;;;0.90;0.60;;;;;19.40;100684.00;;;;2087818;28;20244;-54
2021/12/31 04:24:13;;;;;;;0.80;0.73;;;;;19.40;100681.00;;;;2087679;28;20227;-54
2021/12/31 04:25:14;;;;;;;0.90;0.60;;;;;19.40;100680.00;;;;2087569;28;20262;-54
2021/12/31 04:26:15;;;;;;;1.07;0.70;;;;;19.40;100687.00;;;;2087631;28;20216;-54
2021/12/31 04:27:15;;;;;;;0.65;0.50;;;;;19.40;100680.00;;;;2087707;28;20220;-54
2021/12/31 04:28:16;;;;;;;1.50;0.70;;;;;19.40;100678.00;;;;2087057;28;20205;-53
2021/12/31 04:29:16;;;;;;;1.00;0.63;;;;;19.40;100681.00;;;;2087517;28;20204;-54
2021/12/31 04:30:16;;;;;;;0.90;0.63;;;;;19.40;100682.00;;;;2087602;28;20209;-54
2021/12/31 04:31:17;;;;;;;1.07;0.70;;;;;19.40;100677.00;;;;2086986;28;20228;-54
2021/12/31 04:32:22;;;;;;;0.90;0.60;;;;;19.40;100681.00;;;;2086876;28;20205;-54
2021/12/31 04:33:22;;;;;;;1.00;0.70;;;;;19.40;100685.00;;;;2083976;28;20209;-54
2021/12/31 04:34:22;;;;;;;0.90;0.80;;;;;19.40;100678.00;;;;2087656;28;20211;-54
2021/12/31 04:35:23;;;;;;;0.70;0.70;;;;;19.40;100681.00;;;;2087806;28;20209;-54
2021/12/31 04:36:23;;;;;;;0.93;0.60;;;;;19.40;100672.00;;;;2087739;28;20235;-54
2021/12/31 04:37:23;;;;;;;0.70;0.57;;;;;19.40;100684.00;;;;2087714;28;20204;-53
2021/12/31 04:38:24;;;;;;;1.00;0.80;;;;;19.40;100681.00;;;;2087726;28;20262;-54
2021/12/31 04:39:24;;;;;;;0.93;0.60;;;;;19.40;100684.00;;;;2086932;28;20201;-54
2021/12/31 04:40:24;;;;;;;0.80;0.70;;;;;19.40;100676.00;;;;2086762;28;20255;-54
2021/12/31 04:41:25;;;;;;;1.00;0.70;;;;;19.40;100682.00;;;;2087624;28;20217;-54
2021/12/31 04:42:25;;;;;;;0.80;0.70;;;;;19.40;100690.00;;;;2087582;28;20205;-54
2021/12/31 04:43:25;;;;;;;1.20;0.70;;;;;19.40;100681.00;;;;2087655;28;20237;-54
2021/12/31 04:44:26;;;;;;;0.70;0.70;;;;;19.40;100695.00;;;;2087750;28;20219;-54
2021/12/31 04:45:26;;;;;;;1.00;0.70;;;;;19.40;100693.00;;;;2087582;28;20205;-53
2021/12/31 04:46:26;;;;;;;1.00;0.60;;;;;19.40;100681.00;;;;2088071;28;20298;-54
2021/12/31 04:47:27;;;;;;;1.10;0.60;;;;;19.40;100682.00;;;;2089072;28;20668;-54
2021/12/31 04:48:27;;;;;;;1.30;0.70;;;;;19.20;100678.00;;;;2089217;28;20216;-54
2021/12/31 04:49:27;;;;;;;1.43;0.60;;;;;19.40;100671.00;;;;2089119;28;20248;-54
2021/12/31 04:50:28;;;;;;;0.80;0.63;;;;;19.40;100674.00;;;;2088853;28;20221;-54
2021/12/31 04:51:28;;;;;;;1.00;0.57;;;;;19.40;100683.00;;;;2089059;28;20217;-55
2021/12/31 04:52:28;;;;;;;0.80;0.77;;;;;19.40;100680.00;;;;2089159;28;20736;-54
2021/12/31 04:53:29;;;;;;;1.40;0.87;;;;;19.30;100678.00;;;;2089056;28;20220;-54
2021/12/31 04:54:29;;;;;;;0.80;0.60;;;;;19.40;100678.00;;;;2089032;28;20225;-54
2021/12/31 04:55:30;;;;;;;1.10;0.60;;;;;19.40;100671.00;;;;2088975;28;20243;-54
2021/12/31 04:56:30;;;;;;;1.00;0.60;;;;;19.40;100674.00;;;;2088850;28;20594;-54
2021/12/31 04:57:31;;;;;;;0.90;0.80;;;;;19.40;100673.00;;;;2089152;28;20231;-54
2021/12/31 04:58:31;;;;;;;0.70;0.60;;;;;19.40;100686.00;;;;2089002;28;20225;-54
2021/12/31 04:59:31;;;;;;;0.90;0.60;;;;;19.40;100690.00;;;;2088254;28;20217;-54
2021/12/31 05:00:32;;;;;;;0.70;0.50;;;;;19.40;100684.00;;;;2088182;28;20307;-53
2021/12/31 05:01:32;;;;;;;0.70;0.60;;;;;19.40;100679.00;;;;2088855;28;20262;-54
2021/12/31 05:02:33;;;;;;;0.80;0.70;;;;;19.40;100683.00;;;;2088060;28;20224;-54
2021/12/31 05:03:33;;;;;;;0.90;0.60;;;;;19.40;100687.00;;;;2088243;28;20282;-53
2021/12/31 05:04:33;;;;;;;0.60;0.50;;;;;19.40;100684.00;;;;2088768;28;20221;-53
2021/12/31 05:05:34;;;;;;;0.80;0.60;;;;;19.40;100682.00;;;;2089236;28;20232;-54
2021/12/31 05:06:34;;;;;;;0.80;0.70;;;;;19.40;100694.00;;;;2089068;28;20228;-54